Pine Bluffs, Wyoming
Current Conditions -  °F | °C
As of 5:15 PM on Monday 24 Nov 2014 (Local Time) from K82V Reporting Station
Light Snow Light Snow  
Wind Chill: 16°   Ceiling: Unl
Heat Index: 28°   Visibility: 10mi
Dew Point: 21°   Wind: 17mph
Humidity: 74%   Direction: 350°N
Pressure: 30.12"   Gusts: 28mph
Location:  41.18°N, 104.07°W
Report Text: K82V 250015Z AUTO 35015G24KT 10SM -SN SCT037 SCT060 SCT080 M02/M06 A3012 RMK AO2
Loading
Personal Weather Stations






























Interactive Weather Map New forecast layout! Learn more

10-Day Weather Forecast

Advertisements
Track Severe Weather on mobile